sensor_id;sensor_type;location;lat;lon;timestamp;temperature;humidity
4985;DHT22;2509;49.902;8.600;2024-01-10T00:01:38;-4.10;99.90
4985;DHT22;2509;49.902;8.600;2024-01-10T00:04:40;-4.20;99.90
4985;DHT22;2509;49.902;8.600;2024-01-10T00:07:43;-4.20;99.90
4985;DHT22;2509;49.902;8.600;2024-01-10T00:10:45;-4.10;99.90
4985;DHT22;2509;49.902;8.600;2024-01-10T00:13:46;-4.20;99.90
4985;DHT22;2509;49.902;8.600;2024-01-10T00:16:48;-4.20;99.90
4985;DHT22;2509;49.902;8.600;2024-01-10T00:19:49;-4.20;99.90
4985;DHT22;2509;49.902;8.600;2024-01-10T00:22:52;-4.10;99.90
4985;DHT22;2509;49.902;8.600;2024-01-10T00:25:54;-4.10;99.90
4985;DHT22;2509;49.902;8.600;2024-01-10T00:28:56;-4.10;99.90
4985;DHT22;2509;49.902;8.600;2024-01-10T00:31:57;-4.10;99.90
4985;DHT22;2509;49.902;8.600;2024-01-10T00:35:00;-4.10;99.90
4985;DHT22;2509;49.902;8.600;2024-01-10T00:38:03;-4.10;99.90
4985;DHT22;2509;49.902;8.600;2024-01-10T00:41:05;-4.10;99.90
4985;DHT22;2509;49.902;8.600;2024-01-10T00:44:06;-4.20;99.90
4985;DHT22;2509;49.902;8.600;2024-01-10T00:47:08;-4.20;99.90
4985;DHT22;2509;49.902;8.600;2024-01-10T00:50:10;-4.20;99.90
4985;DHT22;2509;49.902;8.600;2024-01-10T00:53:13;-4.20;99.90
4985;DHT22;2509;49.902;8.600;2024-01-10T00:56:14;-4.30;99.90
4985;DHT22;2509;49.902;8.600;2024-01-10T00:59:16;-4.30;99.90
4985;DHT22;2509;49.902;8.600;2024-01-10T01:02:18;-4.30;99.90
4985;DHT22;2509;49.902;8.600;2024-01-10T01:05:20;-4.40;99.90
4985;DHT22;2509;49.902;8.600;2024-01-10T01:08:23;-4.40;99.90
4985;DHT22;2509;49.902;8.600;2024-01-10T01:11:25;-4.40;99.90
4985;DHT22;2509;49.902;8.600;2024-01-10T01:14:27;-4.40;99.90
4985;DHT22;2509;49.902;8.600;2024-01-10T01:17:28;-4.40;99.90
4985;DHT22;2509;49.902;8.600;2024-01-10T01:20:30;-4.40;99.90
4985;DHT22;2509;49.902;8.600;2024-01-10T01:23:33;-4.40;99.90
4985;DHT22;2509;49.902;8.600;2024-01-10T01:26:35;-4.40;99.90
4985;DHT22;2509;49.902;8.600;2024-01-10T01:29:36;-4.40;99.90
4985;DHT22;2509;49.902;8.600;2024-01-10T01:32:38;-4.50;99.90
4985;DHT22;2509;49.902;8.600;2024-01-10T01:35:40;-4.40;99.90
4985;DHT22;2509;49.902;8.600;2024-01-10T01:38:43;-4.40;99.90
4985;DHT22;2509;49.902;8.600;2024-01-10T01:41:44;-4.40;99.90
4985;DHT22;2509;49.902;8.600;2024-01-10T01:44:46;-4.40;99.90
4985;DHT22;2509;49.902;8.600;2024-01-10T01:47:48;-4.40;99.90
4985;DHT22;2509;49.902;8.600;2024-01-10T01:50:51;-4.50;99.90
4985;DHT22;2509;49.902;8.600;2024-01-10T01:53:55;-4.50;99.90
4985;DHT22;2509;49.902;8.600;2024-01-10T01:56:57;-4.50;99.90
4985;DHT22;2509;49.902;8.600;2024-01-10T01:59:58;-4.50;99.90
4985;DHT22;2509;49.902;8.600;2024-01-10T02:03:00;-4.50;99.90
4985;DHT22;2509;49.902;8.600;2024-01-10T02:06:02;-4.50;99.90
4985;DHT22;2509;49.902;8.600;2024-01-10T02:09:05;-4.50;99.90
4985;DHT22;2509;49.902;8.600;2024-01-10T02:12:08;-4.50;99.90
4985;DHT22;2509;49.902;8.600;2024-01-10T02:15:10;-4.50;99.90
4985;DHT22;2509;49.902;8.600;2024-01-10T02:18:12;-4.50;99.90
4985;DHT22;2509;49.902;8.600;2024-01-10T02:21:14;-4.50;99.90
4985;DHT22;2509;49.902;8.600;2024-01-10T02:24:17;-4.40;99.90
4985;DHT22;2509;49.902;8.600;2024-01-10T02:27:20;-4.50;99.90
4985;DHT22;2509;49.902;8.600;2024-01-10T02:30:22;-4.60;99.90
4985;DHT22;2509;49.902;8.600;2024-01-10T02:33:23;-4.50;99.90
4985;DHT22;2509;49.902;8.600;2024-01-10T02:36:25;-4.50;99.90
4985;DHT22;2509;49.902;8.600;2024-01-10T02:39:27;-4.50;99.90
4985;DHT22;2509;49.902;8.600;2024-01-10T02:42:30;-4.50;99.90
4985;DHT22;2509;49.902;8.600;2024-01-10T02:45:32;-4.50;99.90
4985;DHT22;2509;49.902;8.600;2024-01-10T02:48:34;-4.50;99.90
4985;DHT22;2509;49.902;8.600;2024-01-10T02:51:35;-4.50;99.90
4985;DHT22;2509;49.902;8.600;2024-01-10T02:54:37;-4.50;99.90
4985;DHT22;2509;49.902;8.600;2024-01-10T02:57:40;-4.50;99.90
4985;DHT22;2509;49.902;8.600;2024-01-10T03:00:42;-4.50;99.90
4985;DHT22;2509;49.902;8.600;2024-01-10T03:03:43;-4.50;99.90
4985;DHT22;2509;49.902;8.600;2024-01-10T03:06:45;-4.50;99.90
4985;DHT22;2509;49.902;8.600;2024-01-10T03:09:47;-4.50;99.90
4985;DHT22;2509;49.902;8.600;2024-01-10T03:12:50;-4.50;99.90
4985;DHT22;2509;49.902;8.600;2024-01-10T03:15:51;-4.60;99.90
4985;DHT22;2509;49.902;8.600;2024-01-10T03:18:53;-4.50;99.90
4985;DHT22;2509;49.902;8.600;2024-01-10T03:21:55;-4.60;99.90
4985;DHT22;2509;49.902;8.600;2024-01-10T03:24:56;-4.50;99.90
4985;DHT22;2509;49.902;8.600;2024-01-10T03:27:59;-4.50;99.90
4985;DHT22;2509;49.902;8.600;2024-01-10T03:31:01;-4.50;99.90
4985;DHT22;2509;49.902;8.600;2024-01-10T03:34:03;-4.50;99.90
4985;DHT22;2509;49.902;8.600;2024-01-10T03:37:05;-4.40;99.90
4985;DHT22;2509;49.902;8.600;2024-01-10T03:40:07;-4.40;99.90
4985;DHT22;2509;49.902;8.600;2024-01-10T03:43:10;-4.40;99.90
4985;DHT22;2509;49.902;8.600;2024-01-10T03:46:12;-4.30;99.90
4985;DHT22;2509;49.902;8.600;2024-01-10T03:49:14;-4.30;99.90
4985;DHT22;2509;49.902;8.600;2024-01-10T03:52:16;-4.40;99.90
4985;DHT22;2509;49.902;8.600;2024-01-10T03:55:17;-4.40;99.90
4985;DHT22;2509;49.902;8.600;2024-01-10T03:58:20;-4.40;99.90
4985;DHT22;2509;49.902;8.600;2024-01-10T04:01:22;-4.40;99.90
4985;DHT22;2509;49.902;8.600;2024-01-10T04:04:24;-4.40;99.90
4985;DHT22;2509;49.902;8.600;2024-01-10T04:07:27;-4.40;99.90
4985;DHT22;2509;49.902;8.600;2024-01-10T04:10:28;-4.40;99.90
4985;DHT22;2509;49.902;8.600;2024-01-10T04:13:31;-4.40;99.90
4985;DHT22;2509;49.902;8.600;2024-01-10T04:16:33;-4.40;99.90
4985;DHT22;2509;49.902;8.600;2024-01-10T04:19:35;-4.30;99.90
4985;DHT22;2509;49.902;8.600;2024-01-10T04:22:36;-4.30;99.90
4985;DHT22;2509;49.902;8.600;2024-01-10T04:25:38;-4.30;99.90
4985;DHT22;2509;49.902;8.600;2024-01-10T04:28:42;-4.30;99.90
4985;DHT22;2509;49.902;8.600;2024-01-10T04:31:43;-4.40;99.90
4985;DHT22;2509;49.902;8.600;2024-01-10T04:34:45;-4.40;99.90
4985;DHT22;2509;49.902;8.600;2024-01-10T04:37:47;-4.30;99.90
4985;DHT22;2509;49.902;8.600;2024-01-10T04:40:48;-4.40;99.90
4985;DHT22;2509;49.902;8.600;2024-01-10T04:43:51;-4.50;99.90
4985;DHT22;2509;49.902;8.600;2024-01-10T04:46:53;-4.40;99.90
4985;DHT22;2509;49.902;8.600;2024-01-10T04:49:54;-4.50;99.90
4985;DHT22;2509;49.902;8.600;2024-01-10T04:52:56;-4.50;99.90
4985;DHT22;2509;49.902;8.600;2024-01-10T04:55:58;-4.40;99.90
4985;DHT22;2509;49.902;8.600;2024-01-10T04:59:01;-4.30;99.90
4985;DHT22;2509;49.902;8.600;2024-01-10T05:02:02;-4.30;99.90
4985;DHT22;2509;49.902;8.600;2024-01-10T05:05:05;-4.20;99.90
4985;DHT22;2509;49.902;8.600;2024-01-10T05:08:07;-4.10;99.90
4985;DHT22;2509;49.902;8.600;2024-01-10T05:11:08;-4.10;99.90
4985;DHT22;2509;49.902;8.600;2024-01-10T05:14:11;-4.10;99.90
4985;DHT22;2509;49.902;8.600;2024-01-10T05:17:13;-4.10;99.90
4985;DHT22;2509;49.902;8.600;2024-01-10T05:20:14;-4.10;99.90
4985;DHT22;2509;49.902;8.600;2024-01-10T05:23:16;-4.10;99.90
4985;DHT22;2509;49.902;8.600;2024-01-10T05:26:18;-4.10;99.90
4985;DHT22;2509;49.902;8.600;2024-01-10T05:29:21;-4.10;99.90
4985;DHT22;2509;49.902;8.600;2024-01-10T05:32:24;-4.20;99.90
4985;DHT22;2509;49.902;8.600;2024-01-10T05:35:25;-4.30;99.90
4985;DHT22;2509;49.902;8.600;2024-01-10T05:38:28;-4.30;99.90
4985;DHT22;2509;49.902;8.600;2024-01-10T05:41:30;-4.30;99.90
4985;DHT22;2509;49.902;8.600;2024-01-10T05:44:33;-4.20;99.90
4985;DHT22;2509;49.902;8.600;2024-01-10T05:47:35;-4.20;99.90
4985;DHT22;2509;49.902;8.600;2024-01-10T05:50:37;-4.20;99.90
4985;DHT22;2509;49.902;8.600;2024-01-10T05:53:39;-4.20;99.90
4985;DHT22;2509;49.902;8.600;2024-01-10T05:56:41;-4.30;99.90
4985;DHT22;2509;49.902;8.600;2024-01-10T05:59:44;-4.30;99.90
4985;DHT22;2509;49.902;8.600;2024-01-10T06:02:45;-4.30;99.90
4985;DHT22;2509;49.902;8.600;2024-01-10T06:05:47;-4.30;99.90
4985;DHT22;2509;49.902;8.600;2024-01-10T06:08:49;-4.30;99.90
4985;DHT22;2509;49.902;8.600;2024-01-10T06:11:50;-4.30;99.90
4985;DHT22;2509;49.902;8.600;2024-01-10T06:14:53;-4.40;99.90
4985;DHT22;2509;49.902;8.600;2024-01-10T06:17:55;-4.50;99.90
4985;DHT22;2509;49.902;8.600;2024-01-10T06:20:57;-4.60;99.90
4985;DHT22;2509;49.902;8.600;2024-01-10T06:24:19;-4.60;99.90
4985;DHT22;2509;49.902;8.600;2024-01-10T06:27:43;-4.60;99.90
4985;DHT22;2509;49.902;8.600;2024-01-10T06:30:53;-4.60;99.90
4985;DHT22;2509;49.902;8.600;2024-01-10T06:33:54;-4.70;99.90
4985;DHT22;2509;49.902;8.600;2024-01-10T06:36:56;-4.70;99.90
4985;DHT22;2509;49.902;8.600;2024-01-10T06:39:58;-4.70;99.90
4985;DHT22;2509;49.902;8.600;2024-01-10T06:46:39;-4.70;99.90
4985;DHT22;2509;49.902;8.600;2024-01-10T06:49:41;-4.60;99.90
4985;DHT22;2509;49.902;8.600;2024-01-10T06:52:42;-4.50;99.90
4985;DHT22;2509;49.902;8.600;2024-01-10T06:55:44;-4.50;99.90
4985;DHT22;2509;49.902;8.600;2024-01-10T06:58:46;-4.50;99.90
4985;DHT22;2509;49.902;8.600;2024-01-10T07:01:52;-4.60;99.90
4985;DHT22;2509;49.902;8.600;2024-01-10T07:04:53;-4.50;99.90
4985;DHT22;2509;49.902;8.600;2024-01-10T07:07:55;-4.50;99.90
4985;DHT22;2509;49.902;8.600;2024-01-10T07:10:57;-4.50;99.90
4985;DHT22;2509;49.902;8.600;2024-01-10T07:13:58;-4.40;99.90
4985;DHT22;2509;49.902;8.600;2024-01-10T07:17:02;-4.40;99.90
4985;DHT22;2509;49.902;8.600;2024-01-10T07:20:04;-4.40;99.90
4985;DHT22;2509;49.902;8.600;2024-01-10T07:23:07;-4.40;99.90
4985;DHT22;2509;49.902;8.600;2024-01-10T07:26:09;-4.40;99.90
4985;DHT22;2509;49.902;8.600;2024-01-10T07:29:10;-4.50;99.90
4985;DHT22;2509;49.902;8.600;2024-01-10T07:32:13;-4.50;99.90
4985;DHT22;2509;49.902;8.600;2024-01-10T07:35:15;-4.50;99.90
4985;DHT22;2509;49.902;8.600;2024-01-10T07:38:16;-4.40;99.90
4985;DHT22;2509;49.902;8.600;2024-01-10T07:41:18;-4.40;99.90
4985;DHT22;2509;49.902;8.600;2024-01-10T07:44:20;-4.40;99.90
4985;DHT22;2509;49.902;8.600;2024-01-10T07:47:23;-4.30;99.90
4985;DHT22;2509;49.902;8.600;2024-01-10T07:50:25;-4.30;99.90
4985;DHT22;2509;49.902;8.600;2024-01-10T07:53:28;-4.30;99.90
4985;DHT22;2509;49.902;8.600;2024-01-10T07:56:29;-4.30;99.90
4985;DHT22;2509;49.902;8.600;2024-01-10T07:59:31;-4.30;99.90
4985;DHT22;2509;49.902;8.600;2024-01-10T08:02:34;-4.20;99.90
4985;DHT22;2509;49.902;8.600;2024-01-10T08:05:36;-4.10;99.90
4985;DHT22;2509;49.902;8.600;2024-01-10T08:11:43;-4.10;99.90
4985;DHT22;2509;49.902;8.600;2024-01-10T08:14:45;-4.10;99.90
4985;DHT22;2509;49.902;8.600;2024-01-10T08:17:51;-4.00;99.90
4985;DHT22;2509;49.902;8.600;2024-01-10T08:20:54;-3.90;99.90
4985;DHT22;2509;49.902;8.600;2024-01-10T08:23:55;-3.70;99.90
4985;DHT22;2509;49.902;8.600;2024-01-10T08:26:58;-3.70;99.90
4985;DHT22;2509;49.902;8.600;2024-01-10T08:29:59;-3.60;99.90
4985;DHT22;2509;49.902;8.600;2024-01-10T08:33:02;-3.50;99.90
4985;DHT22;2509;49.902;8.600;2024-01-10T08:36:05;-3.40;99.90
4985;DHT22;2509;49.902;8.600;2024-01-10T08:39:07;-3.40;99.90
4985;DHT22;2509;49.902;8.600;2024-01-10T08:42:11;-3.30;99.90
4985;DHT22;2509;49.902;8.600;2024-01-10T08:45:12;-3.10;99.90
4985;DHT22;2509;49.902;8.600;2024-01-10T08:48:16;-3.00;99.90
4985;DHT22;2509;49.902;8.600;2024-01-10T08:51:18;-2.90;99.90
4985;DHT22;2509;49.902;8.600;2024-01-10T08:54:19;-2.90;99.90
4985;DHT22;2509;49.902;8.600;2024-01-10T08:57:22;-2.90;99.90
4985;DHT22;2509;49.902;8.600;2024-01-10T09:00:26;-2.80;99.90
4985;DHT22;2509;49.902;8.600;2024-01-10T09:03:28;-2.90;99.90
4985;DHT22;2509;49.902;8.600;2024-01-10T09:06:31;-2.80;99.90
4985;DHT22;2509;49.902;8.600;2024-01-10T09:09:32;-2.80;99.90
4985;DHT22;2509;49.902;8.600;2024-01-10T09:12:34;-2.70;99.90
4985;DHT22;2509;49.902;8.600;2024-01-10T09:15:35;-2.80;99.90
4985;DHT22;2509;49.902;8.600;2024-01-10T09:18:38;-2.70;99.90
4985;DHT22;2509;49.902;8.600;2024-01-10T09:21:40;-2.70;99.90
4985;DHT22;2509;49.902;8.600;2024-01-10T09:24:42;-2.60;99.90
4985;DHT22;2509;49.902;8.600;2024-01-10T09:27:43;-2.60;99.90
4985;DHT22;2509;49.902;8.600;2024-01-10T09:30:45;-2.50;99.90
4985;DHT22;2509;49.902;8.600;2024-01-10T09:33:49;-2.50;99.90
4985;DHT22;2509;49.902;8.600;2024-01-10T09:36:50;-2.40;99.90
4985;DHT22;2509;49.902;8.600;2024-01-10T09:39:52;-2.40;99.90
4985;DHT22;2509;49.902;8.600;2024-01-10T09:42:54;-2.30;99.90
4985;DHT22;2509;49.902;8.600;2024-01-10T09:45:55;-2.20;99.90
4985;DHT22;2509;49.902;8.600;2024-01-10T09:49:00;-2.20;99.90
4985;DHT22;2509;49.902;8.600;2024-01-10T09:52:03;-2.10;99.90
4985;DHT22;2509;49.902;8.600;2024-01-10T09:55:05;-2.00;99.90
4985;DHT22;2509;49.902;8.600;2024-01-10T09:58:07;-1.90;99.90
4985;DHT22;2509;49.902;8.600;2024-01-10T10:01:10;-1.90;99.90
4985;DHT22;2509;49.902;8.600;2024-01-10T10:04:13;-2.00;99.90
4985;DHT22;2509;49.902;8.600;2024-01-10T10:07:17;-1.90;99.90
4985;DHT22;2509;49.902;8.600;2024-01-10T10:10:19;-1.90;99.90
4985;DHT22;2509;49.902;8.600;2024-01-10T10:13:24;-1.80;99.90
4985;DHT22;2509;49.902;8.600;2024-01-10T10:16:25;-1.80;99.90
4985;DHT22;2509;49.902;8.600;2024-01-10T10:19:28;-1.80;99.90
4985;DHT22;2509;49.902;8.600;2024-01-10T10:22:30;-1.80;99.90
4985;DHT22;2509;49.902;8.600;2024-01-10T10:25:32;-1.80;99.90
4985;DHT22;2509;49.902;8.600;2024-01-10T10:28:34;-1.80;99.90
4985;DHT22;2509;49.902;8.600;2024-01-10T10:31:35;-1.80;99.90
4985;DHT22;2509;49.902;8.600;2024-01-10T10:34:38;-1.70;99.90
4985;DHT22;2509;49.902;8.600;2024-01-10T10:37:40;-1.60;99.90
4985;DHT22;2509;49.902;8.600;2024-01-10T10:40:42;-1.60;99.90
4985;DHT22;2509;49.902;8.600;2024-01-10T10:43:43;-1.50;99.90
4985;DHT22;2509;49.902;8.600;2024-01-10T10:46:45;-1.50;99.90
4985;DHT22;2509;49.902;8.600;2024-01-10T10:49:52;-1.40;99.90
4985;DHT22;2509;49.902;8.600;2024-01-10T10:52:55;-1.30;99.90
4985;DHT22;2509;49.902;8.600;2024-01-10T10:55:57;-1.30;99.90
4985;DHT22;2509;49.902;8.600;2024-01-10T10:58:59;-1.20;99.90
4985;DHT22;2509;49.902;8.600;2024-01-10T11:02:02;-1.10;99.90
4985;DHT22;2509;49.902;8.600;2024-01-10T11:05:05;-0.90;99.90
4985;DHT22;2509;49.902;8.600;2024-01-10T11:08:07;-0.80;99.90
4985;DHT22;2509;49.902;8.600;2024-01-10T11:11:13;-0.60;99.90
4985;DHT22;2509;49.902;8.600;2024-01-10T11:14:21;-0.50;99.90
4985;DHT22;2509;49.902;8.600;2024-01-10T11:17:28;-0.50;99.90
4985;DHT22;2509;49.902;8.600;2024-01-10T11:20:39;-0.50;99.90
4985;DHT22;2509;49.902;8.600;2024-01-10T11:23:45;-0.40;99.90
4985;DHT22;2509;49.902;8.600;2024-01-10T11:26:47;-0.30;99.90
4985;DHT22;2509;49.902;8.600;2024-01-10T11:29:49;-0.30;99.90
4985;DHT22;2509;49.902;8.600;2024-01-10T11:32:51;-0.30;99.90
4985;DHT22;2509;49.902;8.600;2024-01-10T11:36:07;-0.10;99.90
4985;DHT22;2509;49.902;8.600;2024-01-10T11:39:09;0.00;99.90
4985;DHT22;2509;49.902;8.600;2024-01-10T11:42:18;0.10;99.90
4985;DHT22;2509;49.902;8.600;2024-01-10T11:45:35;0.30;99.90
4985;DHT22;2509;49.902;8.600;2024-01-10T11:48:37;0.40;99.90
4985;DHT22;2509;49.902;8.600;2024-01-10T11:51:41;0.30;99.90
4985;DHT22;2509;49.902;8.600;2024-01-10T11:54:43;0.40;99.90
4985;DHT22;2509;49.902;8.600;2024-01-10T11:57:45;0.40;99.90
4985;DHT22;2509;49.902;8.600;2024-01-10T12:01:04;0.40;99.90
4985;DHT22;2509;49.902;8.600;2024-01-10T12:04:07;0.40;99.90
4985;DHT22;2509;49.902;8.600;2024-01-10T12:07:10;0.40;99.90
4985;DHT22;2509;49.902;8.600;2024-01-10T12:10:12;0.50;99.90
4985;DHT22;2509;49.902;8.600;2024-01-10T12:13:14;0.70;99.90
4985;DHT22;2509;49.902;8.600;2024-01-10T12:16:16;0.90;99.90
4985;DHT22;2509;49.902;8.600;2024-01-10T12:19:18;1.10;99.90
4985;DHT22;2509;49.902;8.600;2024-01-10T12:22:21;1.50;99.90
4985;DHT22;2509;49.902;8.600;2024-01-10T12:25:23;2.10;99.90
4985;DHT22;2509;49.902;8.600;2024-01-10T12:28:25;2.40;99.90
4985;DHT22;2509;49.902;8.600;2024-01-10T12:31:26;2.40;99.90
4985;DHT22;2509;49.902;8.600;2024-01-10T12:34:28;2.70;99.90
4985;DHT22;2509;49.902;8.600;2024-01-10T12:37:32;2.70;99.90
4985;DHT22;2509;49.902;8.600;2024-01-10T12:40:33;2.90;99.90
4985;DHT22;2509;49.902;8.600;2024-01-10T12:43:35;3.30;99.90
4985;DHT22;2509;49.902;8.600;2024-01-10T12:46:48;3.60;99.90
4985;DHT22;2509;49.902;8.600;2024-01-10T12:49:50;3.80;99.80
4985;DHT22;2509;49.902;8.600;2024-01-10T12:52:53;3.90;99.10
4985;DHT22;2509;49.902;8.600;2024-01-10T12:55:55;3.90;98.50
4985;DHT22;2509;49.902;8.600;2024-01-10T12:58:56;3.90;99.00
4985;DHT22;2509;49.902;8.600;2024-01-10T13:01:58;4.00;98.90
4985;DHT22;2509;49.902;8.600;2024-01-10T13:05:00;4.10;98.30
4985;DHT22;2509;49.902;8.600;2024-01-10T13:08:03;4.40;98.20
4985;DHT22;2509;49.902;8.600;2024-01-10T13:11:06;4.50;98.20
4985;DHT22;2509;49.902;8.600;2024-01-10T13:14:09;4.50;97.50
4985;DHT22;2509;49.902;8.600;2024-01-10T13:17:11;5.20;96.90
4985;DHT22;2509;49.902;8.600;2024-01-10T13:20:12;5.30;95.60
4985;DHT22;2509;49.902;8.600;2024-01-10T13:23:15;5.20;96.10
4985;DHT22;2509;49.902;8.600;2024-01-10T13:26:19;5.10;96.00
4985;DHT22;2509;49.902;8.600;2024-01-10T13:29:20;5.30;95.80
4985;DHT22;2509;49.902;8.600;2024-01-10T13:32:22;5.10;95.90
4985;DHT22;2509;49.902;8.600;2024-01-10T13:35:23;5.00;96.10
4985;DHT22;2509;49.902;8.600;2024-01-10T13:38:26;4.90;96.80
4985;DHT22;2509;49.902;8.600;2024-01-10T13:41:28;5.10;96.60
4985;DHT22;2509;49.902;8.600;2024-01-10T13:44:30;5.00;95.80
4985;DHT22;2509;49.902;8.600;2024-01-10T13:47:31;4.90;96.90
4985;DHT22;2509;49.902;8.600;2024-01-10T13:50:33;5.20;96.70
4985;DHT22;2509;49.902;8.600;2024-01-10T13:53:36;5.00;96.90
4985;DHT22;2509;49.902;8.600;2024-01-10T13:56:38;4.70;97.10
4985;DHT22;2509;49.902;8.600;2024-01-10T13:59:40;4.70;97.30
4985;DHT22;2509;49.902;8.600;2024-01-10T14:02:42;4.40;97.70
4985;DHT22;2509;49.902;8.600;2024-01-10T14:05:44;4.20;98.30
4985;DHT22;2509;49.902;8.600;2024-01-10T14:08:47;3.60;99.50
4985;DHT22;2509;49.902;8.600;2024-01-10T14:11:49;3.30;99.90
4985;DHT22;2509;49.902;8.600;2024-01-10T14:14:50;3.20;99.90
4985;DHT22;2509;49.902;8.600;2024-01-10T14:17:52;2.90;99.90
4985;DHT22;2509;49.902;8.600;2024-01-10T14:20:54;2.80;99.90
4985;DHT22;2509;49.902;8.600;2024-01-10T14:23:57;2.80;99.90
4985;DHT22;2509;49.902;8.600;2024-01-10T14:26:58;2.50;99.90
4985;DHT22;2509;49.902;8.600;2024-01-10T14:30:00;2.40;99.90
4985;DHT22;2509;49.902;8.600;2024-01-10T14:33:03;2.30;99.90
4985;DHT22;2509;49.902;8.600;2024-01-10T14:36:05;2.20;99.90
4985;DHT22;2509;49.902;8.600;2024-01-10T14:39:08;2.10;99.90
4985;DHT22;2509;49.902;8.600;2024-01-10T14:42:13;2.00;99.90
4985;DHT22;2509;49.902;8.600;2024-01-10T14:45:15;1.80;99.90
4985;DHT22;2509;49.902;8.600;2024-01-10T14:48:16;1.60;99.90
4985;DHT22;2509;49.902;8.600;2024-01-10T14:51:18;1.50;99.90
4985;DHT22;2509;49.902;8.600;2024-01-10T14:54:21;1.50;99.90
4985;DHT22;2509;49.902;8.600;2024-01-10T14:57:23;1.50;99.90
4985;DHT22;2509;49.902;8.600;2024-01-10T15:00:25;1.50;99.90
4985;DHT22;2509;49.902;8.600;2024-01-10T15:03:26;1.40;99.90
4985;DHT22;2509;49.902;8.600;2024-01-10T15:06:28;1.20;99.90
4985;DHT22;2509;49.902;8.600;2024-01-10T15:09:31;1.10;99.90
4985;DHT22;2509;49.902;8.600;2024-01-10T15:12:33;1.10;99.90
4985;DHT22;2509;49.902;8.600;2024-01-10T15:15:36;0.90;99.90
4985;DHT22;2509;49.902;8.600;2024-01-10T15:18:38;0.80;99.90
4985;DHT22;2509;49.902;8.600;2024-01-10T15:21:39;0.80;99.90
4985;DHT22;2509;49.902;8.600;2024-01-10T15:24:42;0.70;99.90
4985;DHT22;2509;49.902;8.600;2024-01-10T15:27:44;0.50;99.90
4985;DHT22;2509;49.902;8.600;2024-01-10T15:30:45;0.50;99.90
4985;DHT22;2509;49.902;8.600;2024-01-10T15:33:47;0.40;99.90
4985;DHT22;2509;49.902;8.600;2024-01-10T15:36:49;0.30;99.90
4985;DHT22;2509;49.902;8.600;2024-01-10T15:39:52;0.20;99.90
4985;DHT22;2509;49.902;8.600;2024-01-10T15:42:53;0.10;99.90
4985;DHT22;2509;49.902;8.600;2024-01-10T15:45:55;0.10;99.90
4985;DHT22;2509;49.902;8.600;2024-01-10T15:48:57;0.10;99.90
4985;DHT22;2509;49.902;8.600;2024-01-10T15:51:58;0.00;99.90
4985;DHT22;2509;49.902;8.600;2024-01-10T15:55:01;0.00;99.90
4985;DHT22;2509;49.902;8.600;2024-01-10T15:58:03;-0.10;99.90
4985;DHT22;2509;49.902;8.600;2024-01-10T16:01:05;-0.20;99.90
4985;DHT22;2509;49.902;8.600;2024-01-10T16:04:06;-0.30;99.90
4985;DHT22;2509;49.902;8.600;2024-01-10T16:07:08;-0.40;99.90
4985;DHT22;2509;49.902;8.600;2024-01-10T16:10:11;-0.50;99.90
4985;DHT22;2509;49.902;8.600;2024-01-10T16:13:13;-0.50;99.90
4985;DHT22;2509;49.902;8.600;2024-01-10T16:16:15;-0.60;99.90
4985;DHT22;2509;49.902;8.600;2024-01-10T16:19:17;-0.60;99.90
4985;DHT22;2509;49.902;8.600;2024-01-10T16:22:18;-0.60;99.90
4985;DHT22;2509;49.902;8.600;2024-01-10T16:25:21;-0.70;99.90
4985;DHT22;2509;49.902;8.600;2024-01-10T16:28:23;-0.80;99.90
4985;DHT22;2509;49.902;8.600;2024-01-10T16:31:25;-0.80;99.90
4985;DHT22;2509;49.902;8.600;2024-01-10T16:34:27;-0.90;99.90
4985;DHT22;2509;49.902;8.600;2024-01-10T16:37:28;-0.90;99.90
4985;DHT22;2509;49.902;8.600;2024-01-10T16:40:31;-1.00;99.90
4985;DHT22;2509;49.902;8.600;2024-01-10T16:43:33;-1.00;99.90
4985;DHT22;2509;49.902;8.600;2024-01-10T16:46:35;-1.00;99.90
4985;DHT22;2509;49.902;8.600;2024-01-10T16:49:36;-1.10;99.90
4985;DHT22;2509;49.902;8.600;2024-01-10T16:52:38;-1.10;99.90
4985;DHT22;2509;49.902;8.600;2024-01-10T16:55:41;-1.10;99.90
4985;DHT22;2509;49.902;8.600;2024-01-10T16:58:42;-1.10;99.90
4985;DHT22;2509;49.902;8.600;2024-01-10T17:01:44;-1.10;99.90
4985;DHT22;2509;49.902;8.600;2024-01-10T17:04:45;-1.10;99.90
4985;DHT22;2509;49.902;8.600;2024-01-10T17:07:47;-1.20;99.90
4985;DHT22;2509;49.902;8.600;2024-01-10T17:10:50;-1.20;99.90
4985;DHT22;2509;49.902;8.600;2024-01-10T17:13:52;-1.30;99.90
4985;DHT22;2509;49.902;8.600;2024-01-10T17:16:53;-1.30;99.90
4985;DHT22;2509;49.902;8.600;2024-01-10T17:19:55;-1.30;99.90
4985;DHT22;2509;49.902;8.600;2024-01-10T17:22:56;-1.40;99.90
4985;DHT22;2509;49.902;8.600;2024-01-10T17:25:59;-1.40;99.90
4985;DHT22;2509;49.902;8.600;2024-01-10T17:29:03;-1.40;99.90
4985;DHT22;2509;49.902;8.600;2024-01-10T17:32:05;-1.40;99.90
4985;DHT22;2509;49.902;8.600;2024-01-10T17:35:07;-1.50;99.90
4985;DHT22;2509;49.902;8.600;2024-01-10T17:38:09;-1.50;99.90
4985;DHT22;2509;49.902;8.600;2024-01-10T17:41:12;-1.50;99.90
4985;DHT22;2509;49.902;8.600;2024-01-10T17:44:13;-1.50;99.90
4985;DHT22;2509;49.902;8.600;2024-01-10T17:47:15;-1.60;99.90
4985;DHT22;2509;49.902;8.600;2024-01-10T17:50:17;-1.60;99.90
4985;DHT22;2509;49.902;8.600;2024-01-10T17:53:19;-1.60;99.90
4985;DHT22;2509;49.902;8.600;2024-01-10T17:56:22;-1.60;99.90
4985;DHT22;2509;49.902;8.600;2024-01-10T17:59:23;-1.70;99.90
4985;DHT22;2509;49.902;8.600;2024-01-10T18:02:25;-1.70;99.90
4985;DHT22;2509;49.902;8.600;2024-01-10T18:05:26;-1.70;99.90
4985;DHT22;2509;49.902;8.600;2024-01-10T18:08:28;-1.70;99.90
4985;DHT22;2509;49.902;8.600;2024-01-10T18:11:31;-1.70;99.90
4985;DHT22;2509;49.902;8.600;2024-01-10T18:14:32;-1.80;99.90
4985;DHT22;2509;49.902;8.600;2024-01-10T18:17:34;-1.80;99.90
4985;DHT22;2509;49.902;8.600;2024-01-10T18:20:36;-1.80;99.90
4985;DHT22;2509;49.902;8.600;2024-01-10T18:23:37;-1.80;99.90
4985;DHT22;2509;49.902;8.600;2024-01-10T18:26:40;-1.80;99.90
4985;DHT22;2509;49.902;8.600;2024-01-10T18:29:42;-1.90;99.90
4985;DHT22;2509;49.902;8.600;2024-01-10T18:32:44;-1.90;99.90
4985;DHT22;2509;49.902;8.600;2024-01-10T18:35:45;-1.90;99.90
4985;DHT22;2509;49.902;8.600;2024-01-10T18:38:47;-1.90;99.90
4985;DHT22;2509;49.902;8.600;2024-01-10T18:41:51;-1.90;99.90
4985;DHT22;2509;49.902;8.600;2024-01-10T18:44:53;-2.00;99.90
4985;DHT22;2509;49.902;8.600;2024-01-10T18:47:54;-1.90;99.90
4985;DHT22;2509;49.902;8.600;2024-01-10T18:50:56;-1.90;99.90
4985;DHT22;2509;49.902;8.600;2024-01-10T18:53:58;-2.00;99.90
4985;DHT22;2509;49.902;8.600;2024-01-10T18:57:00;-2.00;99.90
4985;DHT22;2509;49.902;8.600;2024-01-10T19:00:05;-2.00;99.90
4985;DHT22;2509;49.902;8.600;2024-01-10T19:03:07;-2.10;99.90
4985;DHT22;2509;49.902;8.600;2024-01-10T19:06:08;-2.10;99.90
4985;DHT22;2509;49.902;8.600;2024-01-10T19:09:10;-2.10;99.90
4985;DHT22;2509;49.902;8.600;2024-01-10T19:12:13;-2.20;99.90
4985;DHT22;2509;49.902;8.600;2024-01-10T19:15:14;-2.20;99.90
4985;DHT22;2509;49.902;8.600;2024-01-10T19:18:16;-2.30;99.90
4985;DHT22;2509;49.902;8.600;2024-01-10T19:21:18;-2.40;99.90
4985;DHT22;2509;49.902;8.600;2024-01-10T19:24:19;-2.40;99.90
4985;DHT22;2509;49.902;8.600;2024-01-10T19:27:23;-2.50;99.90
4985;DHT22;2509;49.902;8.600;2024-01-10T19:30:25;-2.50;99.90
4985;DHT22;2509;49.902;8.600;2024-01-10T19:33:26;-2.50;99.90
4985;DHT22;2509;49.902;8.600;2024-01-10T19:36:28;-2.50;99.90
4985;DHT22;2509;49.902;8.600;2024-01-10T19:39:29;-2.60;99.90
4985;DHT22;2509;49.902;8.600;2024-01-10T19:42:32;-2.60;99.90
4985;DHT22;2509;49.902;8.600;2024-01-10T19:45:34;-2.70;99.90
4985;DHT22;2509;49.902;8.600;2024-01-10T19:48:35;-2.70;99.90
4985;DHT22;2509;49.902;8.600;2024-01-10T19:51:37;-2.80;99.90
4985;DHT22;2509;49.902;8.600;2024-01-10T19:54:39;-2.80;99.90
4985;DHT22;2509;49.902;8.600;2024-01-10T19:57:42;-2.80;99.90
4985;DHT22;2509;49.902;8.600;2024-01-10T20:00:43;-2.80;99.90